sensor_id;sensor_type;location;lat;lon;timestamp;temperature;humidity
40153;DHT22;26371;56.992;23.912;2022-12-10T00:01:48;-9.90;99.90
40153;DHT22;26371;56.992;23.912;2022-12-10T00:04:17;-9.90;99.90
40153;DHT22;26371;56.992;23.912;2022-12-10T00:06:46;-10.00;99.90
40153;DHT22;26371;56.992;23.912;2022-12-10T00:09:17;-10.00;99.90
40153;DHT22;26371;56.992;23.912;2022-12-10T00:11:49;-10.00;99.90
40153;DHT22;26371;56.992;23.912;2022-12-10T00:14:19;-10.00;99.90
40153;DHT22;26371;56.992;23.912;2022-12-10T00:16:47;-9.90;99.90
40153;DHT22;26371;56.992;23.912;2022-12-10T00:19:16;-10.00;99.90
40153;DHT22;26371;56.992;23.912;2022-12-10T00:21:45;-10.00;99.90
40153;DHT22;26371;56.992;23.912;2022-12-10T00:24:14;-9.90;99.90
40153;DHT22;26371;56.992;23.912;2022-12-10T00:26:44;-9.90;99.90
40153;DHT22;26371;56.992;23.912;2022-12-10T00:29:13;-9.90;99.90
40153;DHT22;26371;56.992;23.912;2022-12-10T00:31:43;-10.00;99.90
40153;DHT22;26371;56.992;23.912;2022-12-10T00:34:14;-10.00;99.90
40153;DHT22;26371;56.992;23.912;2022-12-10T00:36:44;-10.00;99.90
40153;DHT22;26371;56.992;23.912;2022-12-10T00:39:18;-10.00;99.90
40153;DHT22;26371;56.992;23.912;2022-12-10T00:41:47;-10.10;99.90
40153;DHT22;26371;56.992;23.912;2022-12-10T00:44:21;-10.10;99.90
40153;DHT22;26371;56.992;23.912;2022-12-10T00:46:51;-10.20;99.90
40153;DHT22;26371;56.992;23.912;2022-12-10T00:49:20;-10.30;99.90
40153;DHT22;26371;56.992;23.912;2022-12-10T00:51:51;-10.30;99.90
40153;DHT22;26371;56.992;23.912;2022-12-10T00:54:22;-10.30;99.90
40153;DHT22;26371;56.992;23.912;2022-12-10T00:56:50;-10.30;99.90
40153;DHT22;26371;56.992;23.912;2022-12-10T00:59:19;-10.30;99.90
40153;DHT22;26371;56.992;23.912;2022-12-10T01:01:48;-10.40;99.90
40153;DHT22;26371;56.992;23.912;2022-12-10T01:04:21;-10.40;99.90
40153;DHT22;26371;56.992;23.912;2022-12-10T01:06:51;-10.40;99.90
40153;DHT22;26371;56.992;23.912;2022-12-10T01:09:21;-10.40;99.90
40153;DHT22;26371;56.992;23.912;2022-12-10T01:11:54;-10.40;99.90
40153;DHT22;26371;56.992;23.912;2022-12-10T01:14:30;-10.40;99.90
40153;DHT22;26371;56.992;23.912;2022-12-10T01:17:01;-10.40;99.90
40153;DHT22;26371;56.992;23.912;2022-12-10T01:19:35;-10.40;99.90
40153;DHT22;26371;56.992;23.912;2022-12-10T01:22:08;-10.50;99.90
40153;DHT22;26371;56.992;23.912;2022-12-10T01:24:37;-10.50;99.90
40153;DHT22;26371;56.992;23.912;2022-12-10T01:27:06;-10.50;99.90
40153;DHT22;26371;56.992;23.912;2022-12-10T01:29:35;-10.50;99.90
40153;DHT22;26371;56.992;23.912;2022-12-10T01:32:08;-10.50;99.90
40153;DHT22;26371;56.992;23.912;2022-12-10T01:34:40;-10.50;99.90
40153;DHT22;26371;56.992;23.912;2022-12-10T01:37:09;-10.50;99.90
40153;DHT22;26371;56.992;23.912;2022-12-10T01:39:38;-10.50;99.90
40153;DHT22;26371;56.992;23.912;2022-12-10T01:42:13;-10.50;99.90
40153;DHT22;26371;56.992;23.912;2022-12-10T01:45:09;-10.50;99.90
40153;DHT22;26371;56.992;23.912;2022-12-10T01:47:39;-10.50;99.90
40153;DHT22;26371;56.992;23.912;2022-12-10T01:50:12;-10.50;99.90
40153;DHT22;26371;56.992;23.912;2022-12-10T01:52:44;-10.60;99.90
40153;DHT22;26371;56.992;23.912;2022-12-10T01:55:43;-10.70;99.90
40153;DHT22;26371;56.992;23.912;2022-12-10T01:58:17;-10.70;99.90
40153;DHT22;26371;56.992;23.912;2022-12-10T02:00:59;-10.70;99.90
40153;DHT22;26371;56.992;23.912;2022-12-10T02:03:50;-10.70;99.90
40153;DHT22;26371;56.992;23.912;2022-12-10T02:09:16;-10.80;99.90
40153;DHT22;26371;56.992;23.912;2022-12-10T02:12:01;-10.80;99.90
40153;DHT22;26371;56.992;23.912;2022-12-10T02:14:50;-10.90;99.90
40153;DHT22;26371;56.992;23.912;2022-12-10T02:17:27;-10.90;99.90
40153;DHT22;26371;56.992;23.912;2022-12-10T02:20:04;-11.00;99.90
40153;DHT22;26371;56.992;23.912;2022-12-10T02:22:45;-11.00;99.90
40153;DHT22;26371;56.992;23.912;2022-12-10T02:25:17;-11.00;99.90
40153;DHT22;26371;56.992;23.912;2022-12-10T02:27:52;-11.00;99.90
40153;DHT22;26371;56.992;23.912;2022-12-10T02:30:26;-11.00;99.90
40153;DHT22;26371;56.992;23.912;2022-12-10T02:32:58;-11.00;99.90
40153;DHT22;26371;56.992;23.912;2022-12-10T02:35:31;-11.00;99.90
40153;DHT22;26371;56.992;23.912;2022-12-10T02:38:06;-10.90;99.90
40153;DHT22;26371;56.992;23.912;2022-12-10T02:40:37;-11.00;99.90
40153;DHT22;26371;56.992;23.912;2022-12-10T02:43:10;-11.00;99.90
40153;DHT22;26371;56.992;23.912;2022-12-10T02:45:43;-11.00;99.90
40153;DHT22;26371;56.992;23.912;2022-12-10T02:48:13;-11.00;99.90
40153;DHT22;26371;56.992;23.912;2022-12-10T02:50:42;-11.00;99.90
40153;DHT22;26371;56.992;23.912;2022-12-10T02:53:11;-11.00;99.90
40153;DHT22;26371;56.992;23.912;2022-12-10T02:55:55;-11.00;99.90
40153;DHT22;26371;56.992;23.912;2022-12-10T02:58:31;-11.00;99.90
40153;DHT22;26371;56.992;23.912;2022-12-10T03:01:11;-11.00;99.90
40153;DHT22;26371;56.992;23.912;2022-12-10T03:03:45;-11.00;99.90
40153;DHT22;26371;56.992;23.912;2022-12-10T03:06:19;-11.00;99.90
40153;DHT22;26371;56.992;23.912;2022-12-10T03:08:54;-11.10;99.90
40153;DHT22;26371;56.992;23.912;2022-12-10T03:11:28;-11.10;99.90
40153;DHT22;26371;56.992;23.912;2022-12-10T03:13:59;-11.10;99.90
40153;DHT22;26371;56.992;23.912;2022-12-10T03:16:34;-11.10;99.90
40153;DHT22;26371;56.992;23.912;2022-12-10T03:19:07;-11.10;99.90
40153;DHT22;26371;56.992;23.912;2022-12-10T03:21:42;-11.10;99.90
40153;DHT22;26371;56.992;23.912;2022-12-10T03:24:11;-11.00;99.90
40153;DHT22;26371;56.992;23.912;2022-12-10T03:26:46;-11.00;99.90
40153;DHT22;26371;56.992;23.912;2022-12-10T03:29:20;-11.10;99.90
40153;DHT22;26371;56.992;23.912;2022-12-10T03:31:53;-11.20;99.90
40153;DHT22;26371;56.992;23.912;2022-12-10T03:34:22;-11.20;99.90
40153;DHT22;26371;56.992;23.912;2022-12-10T03:36:51;-11.20;99.90
40153;DHT22;26371;56.992;23.912;2022-12-10T03:39:20;-11.30;99.90
40153;DHT22;26371;56.992;23.912;2022-12-10T03:41:49;-11.30;99.90
40153;DHT22;26371;56.992;23.912;2022-12-10T03:44:27;-11.30;99.90
40153;DHT22;26371;56.992;23.912;2022-12-10T03:47:02;-11.30;99.90
40153;DHT22;26371;56.992;23.912;2022-12-10T03:49:31;-11.30;99.90
40153;DHT22;26371;56.992;23.912;2022-12-10T03:52:00;-11.20;99.90
40153;DHT22;26371;56.992;23.912;2022-12-10T03:54:29;-11.30;99.90
40153;DHT22;26371;56.992;23.912;2022-12-10T03:56:57;-11.30;99.90
40153;DHT22;26371;56.992;23.912;2022-12-10T03:59:28;-11.30;99.90
40153;DHT22;26371;56.992;23.912;2022-12-10T04:01:59;-11.40;99.90
40153;DHT22;26371;56.992;23.912;2022-12-10T04:04:27;-11.40;99.90
40153;DHT22;26371;56.992;23.912;2022-12-10T04:06:58;-11.40;99.90
40153;DHT22;26371;56.992;23.912;2022-12-10T04:09:27;-11.30;99.90
40153;DHT22;26371;56.992;23.912;2022-12-10T04:11:56;-11.30;99.90
40153;DHT22;26371;56.992;23.912;2022-12-10T04:14:27;-11.30;99.90
40153;DHT22;26371;56.992;23.912;2022-12-10T04:17:15;-11.30;99.90
40153;DHT22;26371;56.992;23.912;2022-12-10T04:19:44;-11.40;99.90
40153;DHT22;26371;56.992;23.912;2022-12-10T04:22:13;-11.40;99.90
40153;DHT22;26371;56.992;23.912;2022-12-10T04:24:59;-11.40;99.90
40153;DHT22;26371;56.992;23.912;2022-12-10T04:27:46;-11.40;99.90
40153;DHT22;26371;56.992;23.912;2022-12-10T04:30:22;-11.40;99.90
40153;DHT22;26371;56.992;23.912;2022-12-10T04:32:52;-11.40;99.90
40153;DHT22;26371;56.992;23.912;2022-12-10T04:35:21;-11.40;99.90
40153;DHT22;26371;56.992;23.912;2022-12-10T04:37:50;-11.40;99.90
40153;DHT22;26371;56.992;23.912;2022-12-10T04:40:21;-11.40;99.90
40153;DHT22;26371;56.992;23.912;2022-12-10T04:42:50;-11.50;99.90
40153;DHT22;26371;56.992;23.912;2022-12-10T04:45:23;-11.50;99.90
40153;DHT22;26371;56.992;23.912;2022-12-10T04:47:53;-11.50;99.90
40153;DHT22;26371;56.992;23.912;2022-12-10T04:50:23;-11.50;99.90
40153;DHT22;26371;56.992;23.912;2022-12-10T04:52:52;-11.50;99.90
40153;DHT22;26371;56.992;23.912;2022-12-10T04:55:21;-11.60;99.90
40153;DHT22;26371;56.992;23.912;2022-12-10T04:57:49;-11.70;99.90
40153;DHT22;26371;56.992;23.912;2022-12-10T05:00:19;-11.70;99.90
40153;DHT22;26371;56.992;23.912;2022-12-10T05:02:50;-11.70;99.90
40153;DHT22;26371;56.992;23.912;2022-12-10T05:05:21;-11.70;99.90
40153;DHT22;26371;56.992;23.912;2022-12-10T05:07:49;-11.80;99.90
40153;DHT22;26371;56.992;23.912;2022-12-10T05:10:18;-11.70;99.90
40153;DHT22;26371;56.992;23.912;2022-12-10T05:12:47;-11.70;99.90
40153;DHT22;26371;56.992;23.912;2022-12-10T05:15:15;-11.70;99.90
40153;DHT22;26371;56.992;23.912;2022-12-10T05:17:44;-11.70;99.90
40153;DHT22;26371;56.992;23.912;2022-12-10T05:20:13;-11.70;99.90
40153;DHT22;26371;56.992;23.912;2022-12-10T05:22:43;-11.80;99.90
40153;DHT22;26371;56.992;23.912;2022-12-10T05:25:29;-11.80;99.90
40153;DHT22;26371;56.992;23.912;2022-12-10T05:28:19;-11.80;99.90
40153;DHT22;26371;56.992;23.912;2022-12-10T05:30:49;-11.80;99.90
40153;DHT22;26371;56.992;23.912;2022-12-10T05:33:18;-11.90;99.90
40153;DHT22;26371;56.992;23.912;2022-12-10T05:35:55;-11.90;99.90
40153;DHT22;26371;56.992;23.912;2022-12-10T05:38:26;-11.90;99.90
40153;DHT22;26371;56.992;23.912;2022-12-10T05:40:55;-12.00;99.90
40153;DHT22;26371;56.992;23.912;2022-12-10T05:43:28;-12.00;99.90
40153;DHT22;26371;56.992;23.912;2022-12-10T05:45:59;-12.00;99.90
40153;DHT22;26371;56.992;23.912;2022-12-10T05:48:28;-12.00;99.90
40153;DHT22;26371;56.992;23.912;2022-12-10T05:50:57;-12.00;99.90
40153;DHT22;26371;56.992;23.912;2022-12-10T05:53:27;-12.10;99.90
40153;DHT22;26371;56.992;23.912;2022-12-10T05:56:00;-12.10;99.90
40153;DHT22;26371;56.992;23.912;2022-12-10T05:58:29;-12.20;99.90
40153;DHT22;26371;56.992;23.912;2022-12-10T06:00:58;-12.10;99.90
40153;DHT22;26371;56.992;23.912;2022-12-10T06:03:28;-12.10;99.90
40153;DHT22;26371;56.992;23.912;2022-12-10T06:05:56;-12.20;99.90
40153;DHT22;26371;56.992;23.912;2022-12-10T06:08:26;-12.20;99.90
40153;DHT22;26371;56.992;23.912;2022-12-10T06:10:55;-12.10;99.90
40153;DHT22;26371;56.992;23.912;2022-12-10T06:13:25;-12.10;99.90
40153;DHT22;26371;56.992;23.912;2022-12-10T06:15:53;-12.10;99.90
40153;DHT22;26371;56.992;23.912;2022-12-10T06:18:22;-12.20;99.90
40153;DHT22;26371;56.992;23.912;2022-12-10T06:20:51;-12.20;99.90
40153;DHT22;26371;56.992;23.912;2022-12-10T06:23:19;-12.20;99.90
40153;DHT22;26371;56.992;23.912;2022-12-10T06:25:49;-12.20;99.90
40153;DHT22;26371;56.992;23.912;2022-12-10T06:28:20;-12.20;99.90
40153;DHT22;26371;56.992;23.912;2022-12-10T06:30:49;-12.30;99.90
40153;DHT22;26371;56.992;23.912;2022-12-10T06:33:19;-12.30;99.90
40153;DHT22;26371;56.992;23.912;2022-12-10T06:35:50;-12.30;99.90
40153;DHT22;26371;56.992;23.912;2022-12-10T06:38:20;-12.30;99.90
40153;DHT22;26371;56.992;23.912;2022-12-10T06:40:52;-12.40;99.90
40153;DHT22;26371;56.992;23.912;2022-12-10T06:43:20;-12.50;99.90
40153;DHT22;26371;56.992;23.912;2022-12-10T06:45:50;-12.50;99.90
40153;DHT22;26371;56.992;23.912;2022-12-10T06:48:20;-12.50;99.90
40153;DHT22;26371;56.992;23.912;2022-12-10T06:50:49;-12.50;99.90
40153;DHT22;26371;56.992;23.912;2022-12-10T06:53:17;-12.40;99.90
40153;DHT22;26371;56.992;23.912;2022-12-10T06:55:48;-12.40;99.90
40153;DHT22;26371;56.992;23.912;2022-12-10T06:58:18;-12.40;99.90
40153;DHT22;26371;56.992;23.912;2022-12-10T07:00:47;-12.40;99.90
40153;DHT22;26371;56.992;23.912;2022-12-10T07:03:16;-12.40;99.90
40153;DHT22;26371;56.992;23.912;2022-12-10T07:05:45;-12.40;99.90
40153;DHT22;26371;56.992;23.912;2022-12-10T07:08:13;-12.40;99.90
40153;DHT22;26371;56.992;23.912;2022-12-10T07:10:44;-12.40;99.90
40153;DHT22;26371;56.992;23.912;2022-12-10T07:13:13;-12.40;99.90
40153;DHT22;26371;56.992;23.912;2022-12-10T07:15:43;-12.40;99.90
40153;DHT22;26371;56.992;23.912;2022-12-10T07:18:14;-12.30;99.90
40153;DHT22;26371;56.992;23.912;2022-12-10T07:20:43;-12.20;99.90
40153;DHT22;26371;56.992;23.912;2022-12-10T07:23:12;-12.20;99.90
40153;DHT22;26371;56.992;23.912;2022-12-10T07:25:40;-12.10;99.90
40153;DHT22;26371;56.992;23.912;2022-12-10T07:28:09;-12.10;99.90
40153;DHT22;26371;56.992;23.912;2022-12-10T07:30:39;-12.00;99.90
40153;DHT22;26371;56.992;23.912;2022-12-10T07:33:09;-12.00;99.90
40153;DHT22;26371;56.992;23.912;2022-12-10T07:35:40;-12.00;99.90
40153;DHT22;26371;56.992;23.912;2022-12-10T07:38:15;-11.90;99.90
40153;DHT22;26371;56.992;23.912;2022-12-10T07:40:44;-11.80;99.90
40153;DHT22;26371;56.992;23.912;2022-12-10T07:43:12;-11.80;99.90
40153;DHT22;26371;56.992;23.912;2022-12-10T07:45:43;-11.80;99.90
40153;DHT22;26371;56.992;23.912;2022-12-10T07:48:13;-11.70;99.90
40153;DHT22;26371;56.992;23.912;2022-12-10T07:50:42;-11.70;99.90
40153;DHT22;26371;56.992;23.912;2022-12-10T07:53:31;-11.60;99.90
40153;DHT22;26371;56.992;23.912;2022-12-10T07:56:05;-11.50;99.90
40153;DHT22;26371;56.992;23.912;2022-12-10T07:58:34;-11.50;99.90
40153;DHT22;26371;56.992;23.912;2022-12-10T08:01:06;-11.50;99.90
40153;DHT22;26371;56.992;23.912;2022-12-10T08:03:39;-11.40;99.90
40153;DHT22;26371;56.992;23.912;2022-12-10T08:06:11;-11.40;99.90
40153;DHT22;26371;56.992;23.912;2022-12-10T08:08:42;-11.50;99.90
40153;DHT22;26371;56.992;23.912;2022-12-10T08:11:12;-11.40;99.90
40153;DHT22;26371;56.992;23.912;2022-12-10T08:13:42;-11.40;99.90
40153;DHT22;26371;56.992;23.912;2022-12-10T08:16:12;-11.30;99.90
40153;DHT22;26371;56.992;23.912;2022-12-10T08:18:44;-11.20;99.90
40153;DHT22;26371;56.992;23.912;2022-12-10T08:21:14;-11.20;99.90
40153;DHT22;26371;56.992;23.912;2022-12-10T08:23:44;-11.20;99.90
40153;DHT22;26371;56.992;23.912;2022-12-10T08:26:18;-11.20;99.90
40153;DHT22;26371;56.992;23.912;2022-12-10T08:28:48;-11.20;99.90
40153;DHT22;26371;56.992;23.912;2022-12-10T08:31:18;-11.10;99.90
40153;DHT22;26371;56.992;23.912;2022-12-10T08:33:48;-11.00;99.90
40153;DHT22;26371;56.992;23.912;2022-12-10T08:36:20;-11.00;99.90
40153;DHT22;26371;56.992;23.912;2022-12-10T08:38:52;-10.90;99.90
40153;DHT22;26371;56.992;23.912;2022-12-10T08:41:22;-10.80;99.90
40153;DHT22;26371;56.992;23.912;2022-12-10T08:43:52;-10.70;99.90
40153;DHT22;26371;56.992;23.912;2022-12-10T08:46:24;-10.60;99.90
40153;DHT22;26371;56.992;23.912;2022-12-10T08:48:55;-10.50;99.90
40153;DHT22;26371;56.992;23.912;2022-12-10T08:51:24;-10.60;99.90
40153;DHT22;26371;56.992;23.912;2022-12-10T08:53:53;-10.50;99.90
40153;DHT22;26371;56.992;23.912;2022-12-10T08:56:22;-10.40;99.90
40153;DHT22;26371;56.992;23.912;2022-12-10T08:58:51;-10.30;99.90
40153;DHT22;26371;56.992;23.912;2022-12-10T09:01:20;-10.30;99.90
40153;DHT22;26371;56.992;23.912;2022-12-10T09:03:50;-10.20;99.90
40153;DHT22;26371;56.992;23.912;2022-12-10T09:06:21;-10.20;99.90
40153;DHT22;26371;56.992;23.912;2022-12-10T09:08:52;-10.20;99.90
40153;DHT22;26371;56.992;23.912;2022-12-10T09:11:25;-10.20;99.90
40153;DHT22;26371;56.992;23.912;2022-12-10T09:13:55;-10.10;99.90
40153;DHT22;26371;56.992;23.912;2022-12-10T09:16:29;-10.10;99.90
40153;DHT22;26371;56.992;23.912;2022-12-10T09:18:58;-10.10;99.90
40153;DHT22;26371;56.992;23.912;2022-12-10T09:21:30;-10.10;99.90
40153;DHT22;26371;56.992;23.912;2022-12-10T09:24:00;-10.10;99.90
40153;DHT22;26371;56.992;23.912;2022-12-10T09:26:29;-10.10;99.90
40153;DHT22;26371;56.992;23.912;2022-12-10T09:28:58;-10.10;99.90
40153;DHT22;26371;56.992;23.912;2022-12-10T09:31:27;-10.10;99.90
40153;DHT22;26371;56.992;23.912;2022-12-10T09:33:56;-10.10;99.90
40153;DHT22;26371;56.992;23.912;2022-12-10T09:36:25;-10.10;99.90
40153;DHT22;26371;56.992;23.912;2022-12-10T09:39:01;-10.00;99.90
40153;DHT22;26371;56.992;23.912;2022-12-10T09:41:49;-9.90;99.90
40153;DHT22;26371;56.992;23.912;2022-12-10T09:44:32;-9.80;99.90
40153;DHT22;26371;56.992;23.912;2022-12-10T09:47:06;-9.80;99.90
40153;DHT22;26371;56.992;23.912;2022-12-10T09:49:56;-9.70;99.90
40153;DHT22;26371;56.992;23.912;2022-12-10T09:52:29;-9.60;99.90
40153;DHT22;26371;56.992;23.912;2022-12-10T09:55:14;-9.60;99.90
40153;DHT22;26371;56.992;23.912;2022-12-10T09:57:45;-9.40;99.90
40153;DHT22;26371;56.992;23.912;2022-12-10T10:00:20;-9.40;99.90
40153;DHT22;26371;56.992;23.912;2022-12-10T10:02:50;-9.50;99.90
40153;DHT22;26371;56.992;23.912;2022-12-10T10:05:21;-9.50;99.90
40153;DHT22;26371;56.992;23.912;2022-12-10T10:07:55;-9.60;99.90
40153;DHT22;26371;56.992;23.912;2022-12-10T10:10:30;-9.60;99.90
40153;DHT22;26371;56.992;23.912;2022-12-10T10:13:01;-9.50;99.90
40153;DHT22;26371;56.992;23.912;2022-12-10T10:15:39;-9.40;99.90
40153;DHT22;26371;56.992;23.912;2022-12-10T10:18:14;-9.40;99.90
40153;DHT22;26371;56.992;23.912;2022-12-10T10:20:46;-9.40;99.90
40153;DHT22;26371;56.992;23.912;2022-12-10T10:23:15;-9.40;99.90
40153;DHT22;26371;56.992;23.912;2022-12-10T10:25:46;-9.40;99.90
40153;DHT22;26371;56.992;23.912;2022-12-10T10:28:19;-9.30;99.90
40153;DHT22;26371;56.992;23.912;2022-12-10T10:30:51;-9.30;99.90
40153;DHT22;26371;56.992;23.912;2022-12-10T10:33:23;-9.20;99.90
40153;DHT22;26371;56.992;23.912;2022-12-10T10:35:56;-9.10;99.90
40153;DHT22;26371;56.992;23.912;2022-12-10T10:38:27;-9.10;99.90
40153;DHT22;26371;56.992;23.912;2022-12-10T10:41:00;-9.10;99.90
40153;DHT22;26371;56.992;23.912;2022-12-10T10:43:39;-9.10;99.90
40153;DHT22;26371;56.992;23.912;2022-12-10T10:46:12;-9.00;99.90
40153;DHT22;26371;56.992;23.912;2022-12-10T10:48:42;-9.00;99.90
40153;DHT22;26371;56.992;23.912;2022-12-10T10:51:19;-8.90;99.90
40153;DHT22;26371;56.992;23.912;2022-12-10T10:53:54;-8.90;99.90
40153;DHT22;26371;56.992;23.912;2022-12-10T10:56:26;-8.80;99.90
40153;DHT22;26371;56.992;23.912;2022-12-10T10:59:04;-8.80;99.90
40153;DHT22;26371;56.992;23.912;2022-12-10T11:01:46;-8.80;99.90
40153;DHT22;26371;56.992;23.912;2022-12-10T11:04:20;-8.80;99.90
40153;DHT22;26371;56.992;23.912;2022-12-10T11:07:03;-8.80;99.90
40153;DHT22;26371;56.992;23.912;2022-12-10T11:09:44;-8.80;99.90
40153;DHT22;26371;56.992;23.912;2022-12-10T11:15:31;-8.80;99.90
40153;DHT22;26371;56.992;23.912;2022-12-10T11:18:02;-8.80;99.90
40153;DHT22;26371;56.992;23.912;2022-12-10T11:20:33;-8.80;99.90
40153;DHT22;26371;56.992;23.912;2022-12-10T11:23:09;-8.80;99.90
40153;DHT22;26371;56.992;23.912;2022-12-10T11:25:50;-8.80;99.90
40153;DHT22;26371;56.992;23.912;2022-12-10T11:28:33;-8.80;99.90
40153;DHT22;26371;56.992;23.912;2022-12-10T11:34:09;-8.70;99.90
40153;DHT22;26371;56.992;23.912;2022-12-10T11:36:53;-8.70;99.90
40153;DHT22;26371;56.992;23.912;2022-12-10T11:39:38;-8.70;99.90
40153;DHT22;26371;56.992;23.912;2022-12-10T11:42:19;-8.70;99.90
40153;DHT22;26371;56.992;23.912;2022-12-10T11:45:02;-8.70;99.90
40153;DHT22;26371;56.992;23.912;2022-12-10T11:47:50;-8.70;99.90
40153;DHT22;26371;56.992;23.912;2022-12-10T11:50:28;-8.70;99.90
40153;DHT22;26371;56.992;23.912;2022-12-10T11:53:13;-8.70;99.90
40153;DHT22;26371;56.992;23.912;2022-12-10T11:55:50;-8.70;99.90
40153;DHT22;26371;56.992;23.912;2022-12-10T11:58:35;-8.70;99.90
40153;DHT22;26371;56.992;23.912;2022-12-10T12:01:21;-8.70;99.90
40153;DHT22;26371;56.992;23.912;2022-12-10T12:04:13;-8.70;99.90
40153;DHT22;26371;56.992;23.912;2022-12-10T12:07:11;-8.70;99.90
40153;DHT22;26371;56.992;23.912;2022-12-10T12:09:54;-8.80;99.90
40153;DHT22;26371;56.992;23.912;2022-12-10T12:12:37;-8.80;99.90
40153;DHT22;26371;56.992;23.912;2022-12-10T12:15:16;-8.70;99.90
40153;DHT22;26371;56.992;23.912;2022-12-10T12:17:53;-8.70;99.90
40153;DHT22;26371;56.992;23.912;2022-12-10T12:20:24;-8.70;99.90
40153;DHT22;26371;56.992;23.912;2022-12-10T12:23:02;-8.70;99.90
40153;DHT22;26371;56.992;23.912;2022-12-10T12:25:36;-8.70;99.90
40153;DHT22;26371;56.992;23.912;2022-12-10T12:28:13;-8.60;99.90
40153;DHT22;26371;56.992;23.912;2022-12-10T12:30:45;-8.60;99.90
40153;DHT22;26371;56.992;23.912;2022-12-10T12:33:29;-8.60;99.90
40153;DHT22;26371;56.992;23.912;2022-12-10T12:36:03;-8.60;99.90
40153;DHT22;26371;56.992;23.912;2022-12-10T12:38:48;-8.60;99.90
40153;DHT22;26371;56.992;23.912;2022-12-10T12:41:29;-8.60;99.90
40153;DHT22;26371;56.992;23.912;2022-12-10T12:44:03;-8.60;99.90
40153;DHT22;26371;56.992;23.912;2022-12-10T12:46:35;-8.70;99.90
40153;DHT22;26371;56.992;23.912;2022-12-10T12:49:20;-8.60;99.90
40153;DHT22;26371;56.992;23.912;2022-12-10T12:51:56;-8.60;99.90
40153;DHT22;26371;56.992;23.912;2022-12-10T12:54:36;-8.60;99.90
40153;DHT22;26371;56.992;23.912;2022-12-10T12:57:10;-8.60;99.90
40153;DHT22;26371;56.992;23.912;2022-12-10T12:59:51;-8.60;99.90
40153;DHT22;26371;56.992;23.912;2022-12-10T13:03:04;-8.50;99.90
40153;DHT22;26371;56.992;23.912;2022-12-10T13:05:37;-8.50;99.90
40153;DHT22;26371;56.992;23.912;2022-12-10T13:08:27;-8.60;99.90
40153;DHT22;26371;56.992;23.912;2022-12-10T13:10:58;-8.60;99.90
40153;DHT22;26371;56.992;23.912;2022-12-10T13:13:32;-8.60;99.90
40153;DHT22;26371;56.992;23.912;2022-12-10T13:16:34;-8.60;99.90
40153;DHT22;26371;56.992;23.912;2022-12-10T13:19:30;-8.60;99.90
40153;DHT22;26371;56.992;23.912;2022-12-10T13:22:08;-8.50;99.90
40153;DHT22;26371;56.992;23.912;2022-12-10T13:24:48;-8.50;99.90
40153;DHT22;26371;56.992;23.912;2022-12-10T13:27:30;-8.50;99.90
40153;DHT22;26371;56.992;23.912;2022-12-10T13:30:13;-8.50;99.90
40153;DHT22;26371;56.992;23.912;2022-12-10T13:33:00;-8.60;99.90
40153;DHT22;26371;56.992;23.912;2022-12-10T13:35:32;-8.50;99.90
40153;DHT22;26371;56.992;23.912;2022-12-10T13:38:21;-8.50;99.90
40153;DHT22;26371;56.992;23.912;2022-12-10T13:41:03;-8.50;99.90
40153;DHT22;26371;56.992;23.912;2022-12-10T13:43:57;-8.60;99.90
40153;DHT22;26371;56.992;23.912;2022-12-10T13:46:56;-8.60;99.90
40153;DHT22;26371;56.992;23.912;2022-12-10T13:49:28;-8.70;99.90
40153;DHT22;26371;56.992;23.912;2022-12-10T13:52:00;-8.60;99.90
40153;DHT22;26371;56.992;23.912;2022-12-10T14:00:56;-8.70;99.90
40153;DHT22;26371;56.992;23.912;2022-12-10T14:04:06;-8.70;99.90
40153;DHT22;26371;56.992;23.912;2022-12-10T14:06:40;-8.70;99.90
40153;DHT22;26371;56.992;23.912;2022-12-10T14:09:16;-8.80;99.90
40153;DHT22;26371;56.992;23.912;2022-12-10T14:11:53;-8.80;99.90
40153;DHT22;26371;56.992;23.912;2022-12-10T14:14:29;-8.80;99.90
40153;DHT22;26371;56.992;23.912;2022-12-10T14:17:03;-8.80;99.90
40153;DHT22;26371;56.992;23.912;2022-12-10T14:19:34;-8.80;99.90
40153;DHT22;26371;56.992;23.912;2022-12-10T14:22:05;-8.80;99.90
40153;DHT22;26371;56.992;23.912;2022-12-10T14:24:36;-8.70;99.90
40153;DHT22;26371;56.992;23.912;2022-12-10T14:27:14;-8.70;99.90
40153;DHT22;26371;56.992;23.912;2022-12-10T14:29:44;-8.60;99.90
40153;DHT22;26371;56.992;23.912;2022-12-10T14:32:19;-8.50;99.90
40153;DHT22;26371;56.992;23.912;2022-12-10T14:34:54;-8.50;99.90
40153;DHT22;26371;56.992;23.912;2022-12-10T14:37:26;-8.40;99.90
40153;DHT22;26371;56.992;23.912;2022-12-10T14:39:56;-8.30;99.90
40153;DHT22;26371;56.992;23.912;2022-12-10T14:42:25;-8.30;99.90
40153;DHT22;26371;56.992;23.912;2022-12-10T14:44:58;-8.20;99.90
40153;DHT22;26371;56.992;23.912;2022-12-10T14:47:32;-8.20;99.90
40153;DHT22;26371;56.992;23.912;2022-12-10T14:50:16;-8.10;99.90
40153;DHT22;26371;56.992;23.912;2022-12-10T14:52:50;-8.10;99.90
40153;DHT22;26371;56.992;23.912;2022-12-10T14:55:21;-8.10;99.90
40153;DHT22;26371;56.992;23.912;2022-12-10T14:57:54;-8.00;99.90
40153;DHT22;26371;56.992;23.912;2022-12-10T15:00:25;-8.00;99.90
40153;DHT22;26371;56.992;23.912;2022-12-10T15:02:56;-8.00;99.90
40153;DHT22;26371;56.992;23.912;2022-12-10T15:05:32;-8.00;99.90
40153;DHT22;26371;56.992;23.912;2022-12-10T15:08:07;-8.00;99.90
40153;DHT22;26371;56.992;23.912;2022-12-10T15:10:44;-8.00;99.90
40153;DHT22;26371;56.992;23.912;2022-12-10T15:13:19;-8.00;99.90
40153;DHT22;26371;56.992;23.912;2022-12-10T15:15:50;-8.00;99.90
40153;DHT22;26371;56.992;23.912;2022-12-10T15:18:21;-7.90;99.90
40153;DHT22;26371;56.992;23.912;2022-12-10T15:21:03;-7.90;99.90
40153;DHT22;26371;56.992;23.912;2022-12-10T15:23:33;-7.90;99.90
40153;DHT22;26371;56.992;23.912;2022-12-10T15:26:10;-7.90;99.90
40153;DHT22;26371;56.992;23.912;2022-12-10T15:28:42;-7.90;99.90
40153;DHT22;26371;56.992;23.912;2022-12-10T15:31:13;-7.90;99.90
40153;DHT22;26371;56.992;23.912;2022-12-10T15:33:48;-7.80;99.90
40153;DHT22;26371;56.992;23.912;2022-12-10T15:36:28;-7.80;99.90
40153;DHT22;26371;56.992;23.912;2022-12-10T15:39:01;-7.80;99.90
40153;DHT22;26371;56.992;23.912;2022-12-10T15:41:41;-7.80;99.90
40153;DHT22;26371;56.992;23.912;2022-12-10T15:44:23;-7.80;99.90
40153;DHT22;26371;56.992;23.912;2022-12-10T15:47:02;-7.80;99.90
40153;DHT22;26371;56.992;23.912;2022-12-10T15:49:35;-7.80;99.90
40153;DHT22;26371;56.992;23.912;2022-12-10T15:52:09;-7.80;99.90
40153;DHT22;26371;56.992;23.912;2022-12-10T15:54:41;-7.80;99.90
40153;DHT22;26371;56.992;23.912;2022-12-10T15:57:14;-7.70;99.90
40153;DHT22;26371;56.992;23.912;2022-12-10T15:59:43;-7.70;99.90
40153;DHT22;26371;56.992;23.912;2022-12-10T16:02:25;-7.70;99.90
40153;DHT22;26371;56.992;23.912;2022-12-10T16:04:58;-7.70;99.90